Time;durP1;ratioP1;P1;durP2;ratioP2;P2;SDS_P1;SDS_P2;PMS_P1;PMS_P2;Temp;Humidity;BMP_temperature;BMP_pressure;BME280_temperature;BME280_humidity;BME280_pressure;Samples;Min_cycle;Max_cycle;Signal;HPM_P1;HPM_P2
2023/07/21 00:01:05;;;;;;;4.45;1.20;;;;;;;14.68;72.40;99557.00;5044562;28;20518;-72
2023/07/21 00:03:32;;;;;;;2.05;0.73;;;;;;;14.70;72.38;99552.59;5026755;28;20083;-73
2023/07/21 00:05:59;;;;;;;3.63;0.80;;;;;;;14.65;72.22;99545.84;5043123;28;20026;-72
2023/07/21 00:08:28;;;;;;;6.25;0.93;;;;;;;14.69;72.16;99550.03;5044634;28;20029;-72
2023/07/21 00:10:55;;;;;;;2.53;1.35;;;;;;;14.68;72.21;99545.72;5044532;28;20048;-71
2023/07/21 00:13:20;;;;;;;3.40;2.33;;;;;;;14.61;72.28;99545.97;5044435;28;20068;-73
2023/07/21 00:15:48;;;;;;;0.93;0.60;;;;;;;14.58;72.50;99548.72;5042911;28;20390;-71
2023/07/21 00:18:14;;;;;;;13.43;1.40;;;;;;;14.59;72.52;99552.16;5044312;28;20021;-73
2023/07/21 00:20:39;;;;;;;3.80;0.70;;;;;;;14.62;72.65;99555.50;5044361;28;20044;-73
2023/07/21 00:23:04;;;;;;;4.88;1.20;;;;;;;14.60;71.99;99533.81;5044205;28;20490;-72
2023/07/21 00:25:30;;;;;;;4.88;1.50;;;;;;;14.66;72.04;99550.16;5044109;28;20072;-72
2023/07/21 00:27:55;;;;;;;3.58;1.20;;;;;;;14.62;72.15;99550.28;5044132;28;20037;-72
2023/07/21 00:30:22;;;;;;;5.47;1.02;;;;;;;14.50;72.24;99535.09;5026261;28;20485;-73
2023/07/21 00:32:47;;;;;;;3.67;0.80;;;;;;;14.57;72.50;99541.75;5043975;28;20498;-73
2023/07/21 00:35:13;;;;;;;9.13;1.90;;;;;;;14.53;72.49;99550.63;5044172;28;20029;-72
2023/07/21 00:37:39;;;;;;;2.35;1.23;;;;;;;14.53;72.81;99548.03;5044060;28;20528;-73
2023/07/21 00:40:09;;;;;;;4.00;1.10;;;;;;;14.59;72.25;99550.41;5043826;28;20263;-72
2023/07/21 00:42:36;;;;;;;12.52;1.08;;;;;;;14.61;72.14;99545.97;5044017;28;20024;-73
2023/07/21 00:45:02;;;;;;;1.50;0.90;;;;;;;14.61;72.47;99542.50;5025827;28;20017;-72
2023/07/21 00:47:29;;;;;;;3.53;0.85;;;;;;;14.60;72.10;99536.41;5044113;28;20026;-73
2023/07/21 00:49:56;;;;;;;6.22;1.42;;;;;;;14.61;72.44;99547.72;5044046;28;20018;-72
2023/07/21 00:52:23;;;;;;;7.05;1.30;;;;;;;14.63;72.34;99546.75;5042442;28;20021;-73
2023/07/21 00:54:49;;;;;;;3.67;0.80;;;;;;;14.64;71.99;99539.78;5042756;28;20432;-72
2023/07/21 00:57:17;;;;;;;1.50;1.00;;;;;;;14.62;72.08;99542.44;5026266;28;20021;-73
2023/07/21 00:59:43;;;;;;;1.15;0.90;;;;;;;14.62;72.44;99544.19;5043570;28;20021;-72
2023/07/21 01:02:08;;;;;;;0.98;0.65;;;;;;;14.60;72.33;99551.25;5026110;28;20024;-72
2023/07/21 01:04:34;;;;;;;3.03;0.88;;;;;;;14.62;72.42;99546.81;5025995;28;20033;-72
2023/07/21 01:07:03;;;;;;;1.08;0.88;;;;;;;14.57;72.91;99541.75;5043945;28;20089;-73
2023/07/21 01:09:29;;;;;;;6.32;0.85;;;;;;;14.56;72.93;99537.47;5026234;28;20480;-73
2023/07/21 01:11:55;;;;;;;3.22;0.60;;;;;;;14.53;72.86;99540.19;5043871;28;20045;-73
2023/07/21 01:14:21;;;;;;;6.78;1.40;;;;;;;14.55;72.94;99540.13;5042254;28;20033;-73
2023/07/21 01:16:47;;;;;;;7.22;1.60;;;;;;;14.53;72.74;99531.50;5042259;28;20033;-71
2023/07/21 01:19:17;;;;;;;4.25;0.95;;;;;;;14.57;72.93;99525.25;5043560;28;20033;-71
2023/07/21 01:21:53;;;;;;;1.63;1.25;;;;;;;14.52;73.04;99533.25;5025948;28;20561;-71
2023/07/21 01:24:50;;;;;;;2.92;1.05;;;;;;;14.49;73.09;99529.00;5043662;28;20122;-73
2023/07/21 01:27:23;;;;;;;5.57;1.23;;;;;;;14.52;73.24;99529.81;5012876;28;20033;-73
2023/07/21 01:29:51;;;;;;;3.10;0.68;;;;;;;14.54;73.03;99536.66;5043604;28;20406;-72
2023/07/21 01:32:19;;;;;;;1.80;0.70;;;;;;;14.51;73.40;99531.56;5025684;28;20398;-73
2023/07/21 01:34:45;;;;;;;6.72;0.85;;;;;;;14.52;73.16;99516.75;5043604;28;20029;-73
2023/07/21 01:37:12;;;;;;;2.90;1.25;;;;;;;14.47;73.27;99519.53;5025676;28;20055;-73
2023/07/21 01:39:38;;;;;;;1.55;0.88;;;;;;;14.50;73.25;99524.66;5043759;28;20025;-73
2023/07/21 01:42:05;;;;;;;2.13;0.80;;;;;;;14.49;73.32;99522.94;5043458;28;20101;-74
2023/07/21 01:44:31;;;;;;;1.13;0.73;;;;;;;14.54;73.12;99520.13;5043422;28;20034;-73
2023/07/21 01:46:57;;;;;;;3.20;0.93;;;;;;;14.54;73.25;99515.78;5025915;28;20030;-73
2023/07/21 01:49:22;;;;;;;7.22;0.90;;;;;;;14.57;73.09;99513.03;5041984;28;20075;-72
2023/07/21 01:51:48;;;;;;;7.10;1.15;;;;;;;14.57;73.19;99520.88;5025449;28;20085;-73
2023/07/21 01:54:24;;;;;;;4.30;0.90;;;;;;;14.59;72.93;99526.88;5025815;28;20049;-72
2023/07/21 01:56:59;;;;;;;4.93;1.65;;;;;;;14.50;73.41;99515.03;5046087;28;20033;-72
2023/07/21 01:59:26;;;;;;;1.95;1.85;;;;;;;14.50;73.34;99515.03;5046385;28;20022;-72
2023/07/21 02:01:54;;;;;;;1.83;0.80;;;;;;;14.46;73.33;99502.16;5046849;28;20013;-72
2023/07/21 02:04:21;;;;;;;7.95;0.98;;;;;;;14.56;73.42;99519.19;5045500;28;20081;-71
2023/07/21 02:06:47;;;;;;;2.92;0.90;;;;;;;14.57;73.36;99515.66;5046974;28;20049;-72
2023/07/21 02:09:13;;;;;;;2.55;0.93;;;;;;;14.50;73.26;99515.03;5046457;28;20033;-72
2023/07/21 02:11:40;;;;;;;8.55;1.98;;;;;;;14.46;73.34;99513.47;5046654;28;20021;-73
2023/07/21 02:14:05;;;;;;;7.53;0.80;;;;;;;14.49;73.61;99522.94;5046630;28;20097;-72
2023/07/21 02:16:31;;;;;;;1.40;0.63;;;;;;;14.48;73.73;99516.88;5046524;28;20029;-73
2023/07/21 02:18:56;;;;;;;5.00;0.88;;;;;;;14.46;73.80;99518.69;5045131;28;20024;-72
2023/07/21 02:21:22;;;;;;;4.15;0.98;;;;;;;14.47;73.79;99527.38;5028751;28;20109;-72
2023/07/21 02:23:48;;;;;;;2.63;1.10;;;;;;;14.47;73.58;99516.94;5046461;28;20029;-72
2023/07/21 02:26:13;;;;;;;2.53;1.10;;;;;;;14.46;73.67;99523.91;5046221;28;20049;-73
2023/07/21 02:28:39;;;;;;;3.42;1.30;;;;;;;14.41;73.92;99515.41;5044897;28;20027;-72
2023/07/21 02:31:06;;;;;;;2.15;0.88;;;;;;;14.48;73.91;99521.22;5046335;28;20032;-72
2023/07/21 02:33:33;;;;;;;4.97;1.10;;;;;;;14.41;74.07;99510.16;5046146;28;20027;-73
2023/07/21 02:36:00;;;;;;;2.38;0.80;;;;;;;14.39;73.98;99522.47;5045936;28;20109;-73
2023/07/21 02:38:26;;;;;;;4.03;1.13;;;;;;;14.37;73.92;99516.44;5028452;28;20092;-72
2023/07/21 02:40:51;;;;;;;3.08;0.70;;;;;;;14.37;73.96;99509.47;5046162;28;20478;-72
2023/07/21 02:43:17;;;;;;;3.22;1.23;;;;;;;14.43;73.82;99515.34;5046363;28;20072;-71
2023/07/21 02:45:53;;;;;;;4.65;0.63;;;;;;;14.45;73.77;99510.91;5046163;28;20025;-73
2023/07/21 02:48:20;;;;;;;4.05;1.30;;;;;;;14.49;73.37;99513.34;5046235;28;20071;-71
2023/07/21 02:50:52;;;;;;;5.07;0.75;;;;;;;14.43;73.37;99510.09;5044475;28;20025;-71
2023/07/21 02:53:19;;;;;;;1.20;0.52;;;;;;;14.40;73.13;99516.31;5045736;28;20026;-71
2023/07/21 02:55:45;;;;;;;4.50;1.30;;;;;;;14.36;73.30;99510.34;5044730;28;20026;-71
2023/07/21 02:58:13;;;;;;;9.10;0.90;;;;;;;14.31;73.15;99512.31;5027469;28;20028;-71
2023/07/21 03:00:39;;;;;;;2.38;0.90;;;;;;;14.26;73.23;99514.25;5045699;28;20028;-73
2023/07/21 03:03:06;;;;;;;3.25;0.88;;;;;;;14.23;73.55;99512.56;5045603;28;20544;-72
2023/07/21 03:05:32;;;;;;;3.30;0.93;;;;;;;14.21;73.62;99510.94;5027854;28;20025;-72
2023/07/21 03:07:59;;;;;;;7.43;1.10;;;;;;;14.22;73.47;99516.09;5045317;28;20048;-72
2023/07/21 03:10:24;;;;;;;3.28;0.63;;;;;;;14.22;73.54;99516.09;5045433;28;20026;-73
2023/07/21 03:12:50;;;;;;;2.53;0.98;;;;;;;14.27;73.28;99522.91;5045445;28;20036;-72
2023/07/21 03:15:15;;;;;;;3.35;0.88;;;;;;;14.30;73.24;99523.63;5043941;28;20029;-72
2023/07/21 03:17:41;;;;;;;3.90;0.85;;;;;;;14.32;73.31;99526.19;5045616;28;20108;-71
2023/07/21 03:20:12;;;;;;;3.80;1.05;;;;;;;14.38;72.75;99528.56;5045397;28;20067;-71
2023/07/21 03:22:44;;;;;;;7.78;1.52;;;;;;;14.34;73.02;99527.00;5027366;28;20035;-72
2023/07/21 03:25:10;;;;;;;5.60;1.38;;;;;;;14.36;72.82;99528.63;5045356;28;20068;-72
2023/07/21 03:27:38;;;;;;;1.88;0.90;;;;;;;14.36;73.32;99533.84;5027395;28;20017;-72
2023/07/21 03:30:04;;;;;;;3.83;1.23;;;;;;;14.36;72.84;99530.41;5045120;28;20022;-73
2023/07/21 03:32:30;;;;;;;1.88;0.65;;;;;;;14.37;73.11;99539.94;5027366;28;20048;-72
2023/07/21 03:34:55;;;;;;;4.65;0.85;;;;;;;14.38;72.94;99531.19;5045143;28;20052;-72
2023/07/21 03:37:25;;;;;;;1.65;1.02;;;;;;;14.41;73.14;99530.22;5027247;28;20099;-72
2023/07/21 03:39:51;;;;;;;1.30;0.73;;;;;;;14.36;72.99;99525.19;5045282;28;20041;-71
2023/07/21 03:42:16;;;;;;;1.98;1.05;;;;;;;14.43;72.90;99523.16;5044907;28;20029;-72
2023/07/21 03:44:41;;;;;;;1.80;1.27;;;;;;;14.38;73.00;99523.34;5043408;28;20021;-73
2023/07/21 03:47:07;;;;;;;4.97;0.70;;;;;;;14.35;72.88;99526.06;5045049;28;20017;-71
2023/07/21 03:49:34;;;;;;;2.78;0.80;;;;;;;14.35;72.93;99526.94;5044860;28;20378;-72
2023/07/21 03:52:00;;;;;;;6.90;1.25;;;;;;;14.38;73.30;99532.03;5044627;28;20029;-72
2023/07/21 03:54:25;;;;;;;2.17;1.02;;;;;;;14.44;72.77;99528.31;5044807;28;20029;-72
2023/07/21 03:56:51;;;;;;;4.78;0.88;;;;;;;14.48;72.51;99536.91;5044810;28;20486;-72
2023/07/21 03:59:16;;;;;;;8.68;1.73;;;;;;;14.55;72.39;99543.59;5044705;28;20028;-72
2023/07/21 04:01:41;;;;;;;7.13;1.05;;;;;;;14.61;72.20;99534.66;5044624;28;20052;-72
2023/07/21 04:04:07;;;;;;;6.90;1.05;;;;;;;14.68;71.54;99532.66;5026691;28;20053;-73
2023/07/21 04:06:32;;;;;;;0.90;0.55;;;;;;;14.77;71.54;99539.28;5043077;28;20029;-71
2023/07/21 04:08:58;;;;;;;1.88;0.80;;;;;;;14.84;70.95;99543.41;5044489;28;20560;-73
2023/07/21 04:11:23;;;;;;;1.30;0.85;;;;;;;14.76;70.66;99530.59;5044537;28;20053;-72
2023/07/21 04:13:48;;;;;;;3.70;0.70;;;;;;;14.78;70.25;99531.38;5044347;28;20021;-72
2023/07/21 04:16:14;;;;;;;3.13;0.85;;;;;;;14.84;70.53;99531.16;5044478;28;20083;-72
2023/07/21 04:18:39;;;;;;;4.75;0.68;;;;;;;14.92;70.05;99535.25;5043661;28;20029;-73
2023/07/21 04:21:05;;;;;;;3.85;1.70;;;;;;;15.05;69.59;99535.59;5044253;28;20022;-73
2023/07/21 04:23:31;;;;;;;2.75;0.77;;;;;;;15.09;68.53;99527.56;5026456;28;20058;-71
2023/07/21 04:25:56;;;;;;;5.78;1.33;;;;;;;15.20;67.95;99529.72;5044310;28;20041;-74
2023/07/21 04:28:22;;;;;;;2.75;0.90;;;;;;;15.32;67.63;99538.81;5044395;28;20513;-73
2023/07/21 04:30:52;;;;;;;1.95;1.17;;;;;;;15.35;66.24;99538.66;5043849;28;20034;-73
2023/07/21 04:33:17;;;;;;;1.88;0.68;;;;;;;15.24;66.06;99523.44;5044088;28;20101;-72
2023/07/21 04:35:45;;;;;;;1.55;0.70;;;;;;;15.28;65.83;99536.38;5044193;28;20469;-73
2023/07/21 04:38:11;;;;;;;2.55;1.08;;;;;;;15.20;65.44;99542.78;5042702;28;20025;-73
2023/07/21 04:40:36;;;;;;;7.55;1.00;;;;;;;15.12;65.81;99537.03;5042707;28;20032;-75
2023/07/21 04:43:02;;;;;;;1.23;0.75;;;;;;;15.05;65.81;99546.06;5043935;28;20025;-74
2023/07/21 04:45:27;;;;;;;4.47;1.08;;;;;;;14.97;65.89;99541.09;5044481;28;20029;-73
2023/07/21 04:47:53;;;;;;;4.13;1.20;;;;;;;14.93;66.10;99542.16;5044147;28;20022;-73
2023/07/21 04:50:18;;;;;;;3.35;1.10;;;;;;;15.01;66.08;99553.16;5042453;28;20506;-73
2023/07/21 04:52:44;;;;;;;0.88;0.70;;;;;;;15.07;65.78;99552.03;5044165;28;20021;-72
2023/07/21 04:55:10;;;;;;;3.67;1.00;;;;;;;15.09;65.43;99555.47;5044035;28;20109;-73
2023/07/21 04:57:35;;;;;;;2.08;1.00;;;;;;;15.14;65.64;99557.88;5043996;28;20528;-74
2023/07/21 05:00:02;;;;;;;1.20;0.93;;;;;;;15.19;66.05;99554.16;5043790;28;20014;-72
2023/07/21 05:02:28;;;;;;;3.55;0.80;;;;;;;15.30;65.46;99551.13;5026250;28;20120;-72
2023/07/21 05:04:55;;;;;;;2.10;0.82;;;;;;;15.44;65.72;99542.69;5026140;28;20017;-73
2023/07/21 05:07:20;;;;;;;5.35;0.63;;;;;;;15.60;65.35;99553.34;5042588;28;20029;-72
2023/07/21 05:09:45;;;;;;;0.65;0.65;;;;;;;15.69;64.21;99545.97;5043684;28;20037;-73
2023/07/21 05:12:11;;;;;;;1.83;1.20;;;;;;;15.73;63.40;99540.53;5043537;28;20366;-73
2023/07/21 05:14:37;;;;;;;1.25;0.40;;;;;;;15.78;62.71;99545.59;5043947;28;20079;-73
2023/07/21 05:17:02;;;;;;;5.07;0.65;;;;;;;15.82;62.99;99549.78;5042650;28;20032;-72
2023/07/21 05:19:28;;;;;;;2.45;1.33;;;;;;;15.82;62.11;99555.00;5043895;28;20028;-73
2023/07/21 05:21:53;;;;;;;3.35;0.77;;;;;;;16.10;62.89;99553.78;5043789;28;20033;-72
2023/07/21 05:24:18;;;;;;;3.80;1.25;;;;;;;16.46;62.11;99551.31;5043438;28;20021;-72
2023/07/21 05:26:46;;;;;;;2.40;0.77;;;;;;;16.81;61.26;99546.19;5043633;28;20466;-73
2023/07/21 05:29:12;;;;;;;5.80;0.80;;;;;;;16.85;59.94;99558.19;5043510;28;20022;-73
2023/07/21 05:31:38;;;;;;;2.20;0.55;;;;;;;17.21;61.17;99555.66;5047284;28;20075;-73
2023/07/21 05:34:07;;;;;;;0.70;0.50;;;;;;;17.96;61.60;99562.34;5047467;28;20022;-73
2023/07/21 05:36:33;;;;;;;3.05;0.82;;;;;;;18.58;58.44;99560.81;5045994;28;20120;-73
2023/07/21 05:38:58;;;;;;;0.95;0.55;;;;;;;18.89;54.97;99563.53;5047163;28;20323;-74
2023/07/21 05:41:24;;;;;;;1.92;0.85;;;;;;;19.35;54.75;99560.03;5047309;28;20037;-73
2023/07/21 05:43:49;;;;;;;2.25;0.60;;;;;;;19.90;53.39;99570.84;5045569;28;20036;-74
2023/07/21 05:46:14;;;;;;;1.40;0.60;;;;;;;20.28;50.68;99545.72;5047120;28;20021;-73
2023/07/21 05:48:41;;;;;;;0.40;0.40;;;;;;;20.62;49.00;99542.72;5045607;28;20026;-73
2023/07/21 05:51:14;;;;;;;1.40;0.95;;;;;;;20.87;48.36;99559.56;5047191;28;20026;-72
2023/07/21 05:53:40;;;;;;;0.60;0.50;;;;;;;21.13;45.95;99558.81;5045851;28;20025;-72
2023/07/21 05:56:06;;;;;;;0.75;0.70;;;;;;;21.47;47.87;99564.47;5047035;28;20025;-72
2023/07/21 05:58:34;;;;;;;1.63;0.68;;;;;;;22.10;47.59;99547.03;5046949;28;20028;-73
2023/07/21 06:01:00;;;;;;;2.45;0.55;;;;;;;22.85;45.66;99552.28;5045368;28;20021;-72
2023/07/21 06:03:25;;;;;;;0.93;0.40;;;;;;;23.25;44.19;99554.63;5046764;28;20052;-71
2023/07/21 06:05:53;;;;;;;5.53;0.70;;;;;;;23.14;42.54;99557.22;5046811;28;20021;-72
2023/07/21 06:08:19;;;;;;;1.35;0.70;;;;;;;23.08;41.92;99558.53;5046692;28;20021;-72
2023/07/21 06:10:44;;;;;;;1.20;0.60;;;;;;;22.90;41.31;99561.59;5046747;28;20099;-72
2023/07/21 06:13:10;;;;;;;1.10;0.60;;;;;;;22.51;40.90;99553.78;5045347;28;20025;-71
2023/07/21 06:15:36;;;;;;;0.40;0.35;;;;;;;21.97;41.87;99558.47;5046397;28;20025;-71
2023/07/21 06:18:05;;;;;;;1.65;0.50;;;;;;;21.73;42.88;99561.84;5046612;28;20025;-71
2023/07/21 06:20:33;;;;;;;4.97;0.50;;;;;;;21.76;41.53;99558.97;5046611;28;20033;-70
2023/07/21 06:23:00;;;;;;;1.42;0.35;;;;;;;21.18;43.04;99557.56;5046521;28;20021;-71
2023/07/21 06:25:27;;;;;;;1.60;0.63;;;;;;;20.83;43.79;99567.78;5046383;28;20041;-70
2023/07/21 06:27:52;;;;;;;1.42;1.17;;;;;;;20.53;44.48;99564.38;5046580;28;20036;-73
2023/07/21 06:30:17;;;;;;;1.58;0.60;;;;;;;20.47;44.50;99556.84;5046272;28;20045;-71
2023/07/21 06:32:43;;;;;;;1.67;1.00;;;;;;;20.37;44.00;99561.88;5046215;28;20021;-73
2023/07/21 06:35:09;;;;;;;2.83;0.50;;;;;;;20.22;44.41;99564.53;5046513;28;20025;-71
2023/07/21 06:37:37;;;;;;;4.63;0.80;;;;;;;19.97;45.07;99566.03;5046130;28;20490;-71
2023/07/21 06:40:05;;;;;;;1.92;0.88;;;;;;;19.91;45.02;99561.13;5028547;28;20025;-71
2023/07/21 06:42:31;;;;;;;2.70;0.88;;;;;;;19.74;45.48;99570.06;5045361;28;20025;-72
2023/07/21 06:44:56;;;;;;;4.00;0.93;;;;;;;19.44;45.62;99570.00;5046032;28;20032;-72
2023/07/21 06:47:23;;;;;;;1.80;0.70;;;;;;;19.16;45.72;99569.00;5046210;28;20094;-72
2023/07/21 06:49:49;;;;;;;2.65;0.50;;;;;;;18.83;46.77;99564.72;5046043;28;20029;-73
2023/07/21 06:52:15;;;;;;;0.95;0.70;;;;;;;18.53;47.30;99571.59;5045995;28;20467;-71
2023/07/21 06:54:40;;;;;;;7.63;0.75;;;;;;;18.27;47.83;99579.16;5045685;28;20490;-71
2023/07/21 06:57:06;;;;;;;1.10;0.55;;;;;;;18.06;48.61;99586.34;5045847;28;20029;-73
2023/07/21 06:59:32;;;;;;;2.58;0.95;;;;;;;18.02;49.24;99593.53;5028065;28;20028;-73
2023/07/21 07:01:58;;;;;;;1.25;0.65;;;;;;;17.86;49.42;99584.78;5045665;28;20029;-72
2023/07/21 07:04:25;;;;;;;2.92;0.82;;;;;;;17.78;49.69;99587.81;5045691;28;20075;-73
2023/07/21 07:06:52;;;;;;;1.55;0.75;;;;;;;17.77;50.11;99597.47;5045778;28;20026;-72
2023/07/21 07:09:17;;;;;;;1.67;1.05;;;;;;;17.78;50.38;99583.41;5044321;28;20021;-71
2023/07/21 07:11:42;;;;;;;1.33;0.68;;;;;;;17.88;50.72;99583.78;5045628;28;20485;-73
2023/07/21 07:14:08;;;;;;;4.03;0.80;;;;;;;17.94;50.07;99580.81;5045506;28;20036;-73
2023/07/21 07:16:33;;;;;;;0.50;0.40;;;;;;;17.98;49.94;99580.66;5043966;28;20021;-73
2023/07/21 07:18:59;;;;;;;2.25;0.68;;;;;;;18.02;49.80;99590.09;5045661;28;20105;-72
2023/07/21 07:21:24;;;;;;;1.83;0.60;;;;;;;18.09;49.77;99578.31;5044249;28;20474;-73
2023/07/21 07:23:50;;;;;;;3.63;0.73;;;;;;;18.20;49.45;99589.13;5044045;28;20053;-73
2023/07/21 07:26:15;;;;;;;1.95;0.73;;;;;;;18.31;49.45;99590.31;5045152;28;20075;-72
2023/07/21 07:28:41;;;;;;;5.50;0.90;;;;;;;18.44;49.03;99591.34;5045458;28;20029;-71
2023/07/21 07:31:06;;;;;;;4.43;0.70;;;;;;;18.68;48.45;99579.56;5045101;28;20022;-72
2023/07/21 07:33:32;;;;;;;3.92;0.60;;;;;;;18.78;48.03;99585.16;5045091;28;20021;-71
2023/07/21 07:35:59;;;;;;;1.38;0.45;;;;;;;18.72;46.84;99589.00;5045341;28;20033;-72
2023/07/21 07:38:27;;;;;;;4.07;0.60;;;;;;;18.46;46.81;99586.03;5045153;28;20026;-71
2023/07/21 07:40:53;;;;;;;1.08;0.55;;;;;;;18.30;47.77;99584.25;5045077;28;20087;-69
2023/07/21 07:43:18;;;;;;;5.07;0.90;;;;;;;18.26;48.01;99582.69;5027239;28;20021;-71
2023/07/21 07:45:44;;;;;;;1.65;0.80;;;;;;;18.29;48.07;99579.88;5044994;28;20138;-70
2023/07/21 07:48:10;;;;;;;1.77;0.50;;;;;;;18.49;48.37;99596.38;5044927;28;20017;-70
2023/07/21 07:50:39;;;;;;;3.22;0.68;;;;;;;19.29;47.66;99577.03;5027258;28;20022;-70
2023/07/21 07:53:06;;;;;;;0.93;0.60;;;;;;;19.87;44.40;99591.25;5044235;28;20553;-72
2023/07/21 07:55:43;;;;;;;2.95;1.00;;;;;;;19.73;44.06;99590.28;5045111;28;20030;-72
2023/07/21 07:58:10;;;;;;;2.90;0.65;;;;;;;19.31;44.88;99588.31;5044939;28;20227;-72
2023/07/21 08:00:38;;;;;;;0.82;0.55;;;;;;;18.99;45.33;99577.00;5044343;28;20033;-70
2023/07/21 08:03:04;;;;;;;3.33;0.65;;;;;;;19.41;46.14;99591.25;5044578;28;20017;-63
2023/07/21 08:05:40;;;;;;;1.65;0.98;;;;;;;20.12;45.35;99603.78;5044604;28;20031;-64
2023/07/21 08:08:06;;;;;;;0.77;0.50;;;;;;;20.73;43.42;99599.19;5044763;28;20096;-65
2023/07/21 08:10:33;;;;;;;3.35;0.75;;;;;;;20.63;43.24;99585.72;5044517;28;20037;-68
2023/07/21 08:13:01;;;;;;;0.45;0.40;;;;;;;20.30;42.87;99588.59;5044284;28;20073;-67
2023/07/21 08:15:26;;;;;;;0.73;0.65;;;;;;;20.27;43.08;99594.06;5042021;28;20029;-67
2023/07/21 08:17:53;;;;;;;3.60;1.80;;;;;;;20.04;43.51;99604.25;5043233;28;20469;-64
2023/07/21 08:20:19;;;;;;;1.20;0.73;;;;;;;20.04;43.60;99604.25;5043343;28;20021;-66
2023/07/21 08:22:45;;;;;;;0.88;0.55;;;;;;;19.97;43.93;99613.44;5044536;28;20025;-66
2023/07/21 08:25:11;;;;;;;4.03;0.60;;;;;;;19.77;44.15;99601.47;5044077;28;20037;-66
2023/07/21 08:27:37;;;;;;;1.40;0.45;;;;;;;19.80;44.54;99602.16;5044039;28;20025;-67
2023/07/21 08:30:02;;;;;;;5.72;1.20;;;;;;;20.55;43.39;99612.59;5044944;28;20112;-67
2023/07/21 08:32:28;;;;;;;0.60;0.38;;;;;;;21.50;43.30;99603.84;5045235;28;20041;-66
2023/07/21 08:34:57;;;;;;;2.47;1.02;;;;;;;22.16;40.95;99594.16;5045434;28;20021;-67
2023/07/21 08:37:23;;;;;;;5.75;0.70;;;;;;;22.20;40.64;99616.81;5045029;28;20057;-67
2023/07/21 08:39:49;;;;;;;1.55;0.60;;;;;;;21.30;42.43;99618.41;5043832;28;20021;-65
2023/07/21 08:42:14;;;;;;;0.63;0.38;;;;;;;20.40;43.84;99611.78;5044779;28;20437;-66
2023/07/21 08:44:40;;;;;;;0.47;0.43;;;;;;;19.84;45.05;99623.84;5045097;28;20041;-66
2023/07/21 08:47:06;;;;;;;2.17;0.73;;;;;;;19.41;45.76;99620.19;5044927;28;20026;-67
2023/07/21 08:49:33;;;;;;;3.35;1.45;;;;;;;18.94;46.51;99619.34;5045000;28;20026;-66
2023/07/21 08:51:58;;;;;;;5.03;0.93;;;;;;;18.66;46.92;99623.47;5044992;28;20021;-67
2023/07/21 08:54:24;;;;;;;0.85;0.50;;;;;;;18.50;47.71;99629.59;5044057;28;20096;-66
2023/07/21 08:56:50;;;;;;;1.40;0.68;;;;;;;18.67;47.16;99627.84;5044134;28;20513;-66
2023/07/21 08:59:18;;;;;;;2.03;0.50;;;;;;;18.75;47.26;99622.16;5042725;28;20501;-67
2023/07/21 09:01:43;;;;;;;1.52;0.52;;;;;;;18.80;46.33;99622.75;5043376;28;20163;-67
2023/07/21 09:04:23;;;;;;;2.13;0.60;;;;;;;19.34;46.49;99628.53;5043859;28;20021;-67
2023/07/21 09:06:52;;;;;;;3.97;0.55;;;;;;;19.89;45.18;99618.34;5047728;28;20112;-67
2023/07/21 09:09:24;;;;;;;4.40;0.52;;;;;;;19.80;44.64;99625.84;5047699;28;20041;-66
2023/07/21 09:12:00;;;;;;;1.85;0.60;;;;;;;19.53;44.78;99625.69;5047882;28;20048;-65
2023/07/21 09:14:34;;;;;;;0.52;0.50;;;;;;;19.25;44.83;99627.31;5047692;28;20017;-66
2023/07/21 09:17:03;;;;;;;4.70;0.88;;;;;;;18.97;45.66;99626.19;5029743;28;20111;-66
2023/07/21 09:19:28;;;;;;;5.95;0.80;;;;;;;18.64;46.41;99615.69;5047765;28;20021;-69
2023/07/21 09:21:56;;;;;;;1.20;0.63;;;;;;;18.55;47.18;99632.81;5047546;28;20112;-65
2023/07/21 09:24:21;;;;;;;1.20;0.45;;;;;;;18.21;47.66;99614.47;5047408;28;20090;-66
2023/07/21 09:26:47;;;;;;;0.85;0.50;;;;;;;17.91;48.03;99630.00;5047533;28;20025;-65
2023/07/21 09:29:19;;;;;;;2.33;0.90;;;;;;;17.61;48.69;99628.03;5047422;28;20017;-65
2023/07/21 09:31:47;;;;;;;4.47;0.60;;;;;;;17.43;49.76;99638.50;5047501;28;20044;-65
2023/07/21 09:34:13;;;;;;;0.95;0.50;;;;;;;17.33;50.07;99633.72;5047199;28;20454;-65
2023/07/21 09:36:45;;;;;;;2.70;0.57;;;;;;;17.40;50.60;99636.91;5047455;28;20021;-65
2023/07/21 09:39:14;;;;;;;0.30;0.30;;;;;;;17.42;50.64;99634.19;5047440;28;20053;-66
2023/07/21 09:41:40;;;;;;;3.00;0.80;;;;;;;17.51;50.76;99646.03;5047671;28;20028;-65
2023/07/21 09:44:06;;;;;;;1.83;0.70;;;;;;;17.30;51.74;99636.50;5047047;28;20061;-66
2023/07/21 09:46:33;;;;;;;4.35;0.85;;;;;;;17.21;51.39;99650.06;5046776;28;20026;-65
2023/07/21 09:48:58;;;;;;;1.75;0.63;;;;;;;17.12;51.04;99645.28;5047228;28;20108;-66
2023/07/21 09:51:26;;;;;;;7.03;0.82;;;;;;;17.04;50.73;99643.00;5029188;28;20438;-67
2023/07/21 09:53:52;;;;;;;4.50;1.58;;;;;;;16.99;50.91;99651.06;5046996;28;20034;-66
2023/07/21 09:56:20;;;;;;;1.30;0.50;;;;;;;16.93;50.72;99646.97;5047114;28;20239;-66
2023/07/21 09:58:56;;;;;;;3.08;0.60;;;;;;;16.94;50.41;99645.19;5046922;28;20025;-66
2023/07/21 10:01:23;;;;;;;2.15;0.60;;;;;;;17.06;50.64;99649.03;5046494;28;20048;-66
2023/07/21 10:03:49;;;;;;;1.30;0.77;;;;;;;17.11;50.57;99640.97;5045421;28;20028;-66
2023/07/21 10:06:15;;;;;;;0.30;0.30;;;;;;;17.15;50.42;99658.22;5047076;28;20026;-66
2023/07/21 10:08:41;;;;;;;2.15;0.65;;;;;;;17.19;50.33;99655.38;5047016;28;20096;-66
2023/07/21 10:11:07;;;;;;;6.05;0.65;;;;;;;17.29;50.78;99652.31;5046743;28;20524;-66
2023/07/21 10:13:33;;;;;;;2.50;0.88;;;;;;;17.55;50.78;99656.31;5046839;28;20315;-65
2023/07/21 10:16:20;;;;;;;1.10;0.65;;;;;;;17.82;50.29;99642.72;5045654;28;20094;-66
2023/07/21 10:19:06;;;;;;;0.22;0.22;;;;;;;17.91;49.06;99644.00;5046639;28;20025;-66
2023/07/21 10:21:47;;;;;;;0.82;0.47;;;;;;;17.89;48.76;99656.34;5046461;28;20025;-71
2023/07/21 10:24:28;;;;;;;1.05;0.50;;;;;;;17.95;49.56;99653.44;5045371;28;20021;-65
2023/07/21 10:27:05;;;;;;;0.30;0.30;;;;;;;18.27;48.55;99647.47;5046650;28;20041;-66
2023/07/21 10:29:30;;;;;;;0.98;0.50;;;;;;;18.37;48.07;99653.03;5046481;28;20029;-66
2023/07/21 10:31:58;;;;;;;2.33;0.57;;;;;;;18.55;48.46;99645.97;5046214;28;20033;-65
2023/07/21 10:34:31;;;;;;;3.05;0.80;;;;;;;18.89;48.41;99650.28;5046281;28;20034;-66
2023/07/21 10:36:58;;;;;;;1.02;0.55;;;;;;;19.01;47.58;99657.50;5044873;28;20334;-66
2023/07/21 10:39:37;;;;;;;2.05;0.35;;;;;;;19.00;46.77;99655.81;5046264;28;20022;-65
2023/07/21 10:42:05;;;;;;;6.28;0.90;;;;;;;18.94;46.47;99656.16;5046226;28;20025;-65
2023/07/21 10:44:33;;;;;;;0.43;0.38;;;;;;;18.82;46.37;99669.03;5046123;28;20025;-67
2023/07/21 10:46:58;;;;;;;0.77;0.40;;;;;;;18.65;45.58;99658.59;5045823;28;20272;-66
2023/07/21 10:49:24;;;;;;;0.50;0.50;;;;;;;18.44;45.63;99661.47;5045848;28;20085;-67
2023/07/21 10:51:49;;;;;;;0.40;0.20;;;;;;;18.30;45.32;99662.19;5046061;28;20029;-66
2023/07/21 10:54:16;;;;;;;2.05;0.50;;;;;;;18.19;45.29;99661.00;5045927;28;20049;-67
2023/07/21 10:56:47;;;;;;;1.13;0.63;;;;;;;18.24;46.30;99668.63;5045938;28;20470;-65
2023/07/21 10:59:13;;;;;;;1.33;1.23;;;;;;;18.42;45.97;99658.06;5028081;28;20369;-65
2023/07/21 11:01:44;;;;;;;4.50;0.70;;;;;;;18.57;45.85;99652.00;5027624;28;20021;-66
2023/07/21 11:04:11;;;;;;;1.13;0.90;;;;;;;18.98;45.81;99657.66;5046282;28;20024;-66
2023/07/21 11:06:47;;;;;;;1.65;0.90;;;;;;;19.39;45.53;99655.44;5045873;28;20472;-65
2023/07/21 11:09:13;;;;;;;0.50;0.35;;;;;;;20.00;45.51;99665.94;5044986;28;20107;-70
2023/07/21 11:11:39;;;;;;;1.05;0.43;;;;;;;20.36;44.04;99650.66;5045820;28;20100;-70
2023/07/21 11:14:09;;;;;;;1.08;0.60;;;;;;;20.55;43.11;99653.00;5043836;28;20025;-70
2023/07/21 11:16:40;;;;;;;3.70;0.60;;;;;;;20.86;43.84;99654.63;5027392;28;20033;-70
2023/07/21 11:19:06;;;;;;;5.78;1.08;;;;;;;20.88;41.24;99656.22;5045433;28;20025;-70
2023/07/21 11:21:34;;;;;;;7.88;0.52;;;;;;;20.67;42.19;99658.44;5045356;28;20087;-69
2023/07/21 11:24:00;;;;;;;1.45;0.63;;;;;;;20.62;42.23;99658.72;5045343;28;20026;-69
2023/07/21 11:26:26;;;;;;;0.57;0.40;;;;;;;20.62;42.68;99645.56;5027389;28;20125;-70
2023/07/21 11:28:52;;;;;;;1.05;0.63;;;;;;;20.76;42.56;99652.59;5045205;28;20026;-69
2023/07/21 11:31:18;;;;;;;3.47;0.60;;;;;;;20.90;42.55;99659.59;5044876;28;20028;-70
2023/07/21 11:33:48;;;;;;;0.45;0.38;;;;;;;20.81;41.78;99650.47;5045097;28;20026;-70